createdAt,value
2022-10-23T00:02:34.281Z,119.93
2022-10-23T00:07:36.714Z,105.40
2022-10-23T00:12:39.677Z,131.07
2022-10-23T00:17:42.628Z,203.27
2022-10-23T00:22:45.181Z,119.93
2022-10-23T00:27:47.529Z,114.77
2022-10-23T00:32:49.896Z,119.27
2022-10-23T00:37:52.304Z,113.33
2022-10-23T00:42:54.677Z,128.57
2022-10-23T00:47:57.594Z,104.00
2022-10-23T00:53:03.375Z,104.47
2022-10-23T00:58:05.784Z,96.77
2022-10-23T01:03:08.294Z,98.43
2022-10-23T01:08:28.743Z,88.03
2022-10-23T01:19:19.999Z,80.90
2022-10-23T01:24:37.628Z,77.80
2022-10-23T01:29:46.862Z,76.07
2022-10-23T01:34:55.641Z,82.50
2022-10-23T01:40:03.056Z,79.00
2022-10-23T01:45:19.257Z,72.83
2022-10-23T01:50:23.382Z,74.33
2022-10-23T01:55:32.930Z,68.90
2022-10-23T02:00:41.452Z,65.83
2022-10-23T02:05:45.246Z,60.37
2022-10-23T02:11:07.479Z,49.97
2022-10-23T02:16:30.487Z,51.13
2022-10-23T02:21:58.536Z,55.40
2022-10-23T02:27:04.666Z,54.33
2022-10-23T02:32:09.750Z,58.63
2022-10-23T02:37:12.228Z,51.27
2022-10-23T02:42:30.456Z,46.43
2022-10-23T02:48:06.799Z,47.23
2022-10-23T02:53:29.483Z,45.67
2022-10-23T02:58:44.703Z,45.73
2022-10-23T03:04:00.025Z,53.60
2022-10-23T03:09:08.286Z,48.03
2022-10-23T03:14:13.494Z,46.83
2022-10-23T03:19:15.917Z,51.03
2022-10-23T03:24:18.329Z,49.73
2022-10-23T03:29:20.933Z,44.17
2022-10-23T03:34:23.717Z,44.63
2022-10-23T03:39:28.723Z,49.50
2022-10-23T03:44:34.134Z,51.90
2022-10-23T03:49:36.828Z,43.83
2022-10-23T03:54:41.845Z,41.50
2022-10-23T03:59:46.171Z,41.60
2022-10-23T04:04:48.672Z,47.00
2022-10-23T04:09:51.240Z,45.17
2022-10-23T04:14:53.739Z,50.27
2022-10-23T04:19:57.419Z,51.60
2022-10-23T04:24:59.813Z,49.77
2022-10-23T04:30:03.771Z,45.70
2022-10-23T04:35:07.094Z,44.87
2022-10-23T04:40:10.063Z,45.57
2022-10-23T04:45:13.854Z,40.40
2022-10-23T04:50:17.914Z,46.87
2022-10-23T04:55:38.855Z,49.70
2022-10-23T05:00:48.881Z,45.80
2022-10-23T05:05:57.938Z,50.00
2022-10-23T05:11:20.623Z,44.43
2022-10-23T05:16:39.063Z,51.47
2022-10-23T05:21:42.251Z,50.57
2022-10-23T05:26:44.778Z,50.70
2022-10-23T05:31:50.666Z,51.50
2022-10-23T05:36:54.163Z,48.10
2022-10-23T05:41:59.121Z,53.13
2022-10-23T05:47:02.731Z,46.90
2022-10-23T05:52:24.264Z,52.87
2022-10-23T05:57:45.592Z,52.27
2022-10-23T06:02:51.202Z,50.87
2022-10-23T06:08:11.104Z,49.87
2022-10-23T06:13:13.858Z,52.77
2022-10-23T06:18:16.809Z,48.10
2022-10-23T06:23:34.392Z,44.07
2022-10-23T06:28:43.268Z,46.70
2022-10-23T06:33:46.062Z,40.77
2022-10-23T06:38:49.545Z,43.53
2022-10-23T06:43:52.560Z,44.30
2022-10-23T06:49:03.962Z,35.27
2022-10-23T06:54:11.889Z,33.90
2022-10-23T06:59:23.814Z,32.00
2022-10-23T07:04:27.980Z,34.97
2022-10-23T07:09:30.859Z,32.43
2022-10-23T07:14:33.424Z,36.00
2022-10-23T07:19:38.499Z,36.80
2022-10-23T07:24:46.367Z,39.60
2022-10-23T07:30:03.042Z,40.07
2022-10-23T07:35:12.391Z,43.93
2022-10-23T07:40:19.082Z,48.63
2022-10-23T07:45:21.597Z,44.83
2022-10-23T07:50:24.646Z,47.67
2022-10-23T07:55:27.133Z,44.37
2022-10-23T08:00:41.357Z,48.33
2022-10-23T08:05:53.791Z,47.67
2022-10-23T08:10:56.789Z,48.70
2022-10-23T08:16:04.742Z,49.67
2022-10-23T08:21:33.333Z,46.07
2022-10-23T08:26:36.326Z,46.63
2022-10-23T08:31:38.759Z,42.37
2022-10-23T08:36:49.932Z,49.50
2022-10-23T08:41:53.328Z,43.77
2022-10-23T08:47:00.839Z,39.37
2022-10-23T08:52:53.162Z,39.13
2022-10-23T08:58:06.185Z,40.90
2022-10-23T09:03:11.985Z,38.90
2022-10-23T09:08:33.942Z,41.77
2022-10-23T09:14:15.201Z,49.27
2022-10-23T09:19:19.779Z,42.93
2022-10-23T09:24:24.830Z,36.37
2022-10-23T09:29:33.209Z,50.43
2022-10-23T09:34:35.645Z,48.03
2022-10-23T09:39:38.244Z,40.93
2022-10-23T09:44:51.819Z,33.33
2022-10-23T09:49:56.938Z,34.07
2022-10-23T09:55:02.306Z,33.67
2022-10-23T10:00:18.793Z,41.13
2022-10-23T10:05:31.066Z,33.23
2022-10-23T10:10:39.889Z,36.43
2022-10-23T10:15:53.212Z,35.77
2022-10-23T10:21:14.579Z,34.10
2022-10-23T10:32:13.449Z,34.20
2022-10-23T10:37:22.241Z,30.87
2022-10-23T10:42:31.114Z,31.83
2022-10-23T10:48:10.903Z,32.33
2022-10-23T10:54:04.303Z,25.20
2022-10-23T10:59:16.861Z,25.10
2022-10-23T11:04:42.549Z,32.93
2022-10-23T11:09:45.664Z,27.43
2022-10-23T11:14:49.932Z,30.57
2022-10-23T11:19:59.730Z,26.47
2022-10-23T11:25:13.851Z,26.70
2022-10-23T11:30:40.711Z,29.57
2022-10-23T11:36:07.164Z,24.13
2022-10-23T11:41:27.141Z,28.30
2022-10-23T11:46:32.645Z,27.67
2022-10-23T11:51:40.553Z,22.00
2022-10-23T11:56:54.855Z,29.00
2022-10-23T12:02:00.825Z,55.13
2022-10-23T12:07:14.359Z,24.33
2022-10-23T12:12:34.283Z,19.53
2022-10-23T12:17:39.157Z,22.57
2022-10-23T12:23:03.602Z,24.60
2022-10-23T12:28:27.720Z,25.93
2022-10-23T12:33:41.314Z,27.40
2022-10-23T12:38:48.859Z,22.87
2022-10-23T12:43:58.432Z,20.97
2022-10-23T12:49:04.038Z,20.30
2022-10-23T12:54:21.042Z,18.43
2022-10-23T12:59:36.817Z,18.57
2022-10-23T13:04:40.591Z,14.57
2022-10-23T13:09:44.700Z,13.40
2022-10-23T13:15:14.180Z,9.60
2022-10-23T13:20:24.636Z,15.40
2022-10-23T13:25:33.186Z,10.20
2022-10-23T13:30:48.262Z,8.23
2022-10-23T13:36:00.593Z,18.30
2022-10-23T13:41:05.638Z,7.77
2022-10-23T13:46:14.855Z,12.97
2022-10-23T13:51:25.613Z,7.83
2022-10-23T13:56:29.889Z,10.63
2022-10-23T14:01:38.632Z,10.77
2022-10-23T14:06:42.191Z,13.00
2022-10-23T14:11:44.884Z,19.60
2022-10-23T14:16:47.248Z,34.83
2022-10-23T14:21:49.629Z,21.70
2022-10-23T14:26:52.048Z,22.87
2022-10-23T14:31:54.460Z,30.77
2022-10-23T14:37:07.727Z,24.40
2022-10-23T14:42:10.473Z,29.77
2022-10-23T14:47:12.867Z,33.27
2022-10-23T14:52:15.258Z,16.80
2022-10-23T14:57:19.425Z,11.33
2022-10-23T15:02:21.881Z,11.47
2022-10-23T15:07:24.289Z,11.33
2022-10-23T15:12:26.655Z,12.70
2022-10-23T15:17:29.020Z,14.70
2022-10-23T15:22:31.445Z,18.50
2022-10-23T15:27:33.797Z,16.97
2022-10-23T15:32:36.140Z,22.17
2022-10-23T15:37:38.541Z,17.57
2022-10-23T15:42:41.352Z,20.17
2022-10-23T15:47:44.101Z,17.40
2022-10-23T15:52:46.971Z,19.83
2022-10-23T15:57:49.596Z,19.90
2022-10-23T16:02:52.901Z,20.03
2022-10-23T16:07:55.256Z,17.37
2022-10-23T16:12:57.677Z,16.37
2022-10-23T16:18:00.059Z,17.73
2022-10-23T16:23:02.426Z,41.27
2022-10-23T16:28:05.799Z,22.87
2022-10-23T16:33:08.470Z,19.67
2022-10-23T16:38:10.884Z,21.10
2022-10-23T16:43:13.247Z,19.37
2022-10-23T16:48:19.115Z,24.93
2022-10-23T16:53:21.528Z,27.60
2022-10-23T16:58:27.596Z,78.70
2022-10-23T17:03:30.598Z,80.80
2022-10-23T17:08:33.495Z,65.67
2022-10-23T17:13:37.707Z,58.13
2022-10-23T17:18:43.748Z,42.67
2022-10-23T17:23:47.267Z,33.90
2022-10-23T17:28:49.956Z,30.47
2022-10-23T17:33:57.531Z,29.60
2022-10-23T17:39:00.473Z,28.87
2022-10-23T17:44:04.074Z,25.23
2022-10-23T17:49:06.927Z,65.13
2022-10-23T17:54:12.102Z,45.47
2022-10-23T17:59:17.490Z,28.87
2022-10-23T18:04:20.805Z,44.37
2022-10-23T18:09:23.584Z,39.53
2022-10-23T18:14:28.502Z,30.50
2022-10-23T18:19:32.058Z,36.07
2022-10-23T18:24:34.458Z,37.13
2022-10-23T18:29:38.223Z,39.47
2022-10-23T18:34:40.605Z,34.27
2022-10-23T18:39:43.185Z,38.73
2022-10-23T18:44:50.091Z,44.00
2022-10-23T18:49:52.528Z,42.23
2022-10-23T18:54:54.912Z,51.23
2022-10-23T18:59:57.295Z,55.27
2022-10-23T19:04:59.966Z,48.97
2022-10-23T19:10:02.641Z,49.57
2022-10-23T19:15:05.411Z,66.63
2022-10-23T19:20:14.859Z,58.13
2022-10-23T19:25:21.692Z,54.47
2022-10-23T19:30:24.819Z,54.20
2022-10-23T19:35:27.290Z,52.93
2022-10-23T19:40:29.722Z,54.37
2022-10-23T19:50:42.544Z,59.67
2022-10-23T19:55:44.933Z,58.83
2022-10-23T20:00:47.368Z,89.77
2022-10-23T20:05:49.893Z,65.83
2022-10-23T20:10:52.490Z,50.63
2022-10-23T20:15:55.326Z,45.50
2022-10-23T20:21:00.569Z,51.53
2022-10-23T20:26:08.179Z,43.13
2022-10-23T20:31:11.684Z,40.10
2022-10-23T20:36:34.950Z,74.17
2022-10-23T20:41:37.910Z,40.57
2022-10-23T20:46:40.566Z,44.00
2022-10-23T20:51:43.349Z,36.00
2022-10-23T20:56:45.750Z,37.30
2022-10-23T21:01:51.323Z,38.53
2022-10-23T21:07:11.673Z,44.07
2022-10-23T21:12:14.253Z,43.20
2022-10-23T21:17:18.052Z,46.03
2022-10-23T21:22:20.449Z,47.90
2022-10-23T21:27:22.917Z,42.17
2022-10-23T21:32:25.366Z,42.13
2022-10-23T21:37:27.730Z,45.07
2022-10-23T21:42:30.940Z,63.37
2022-10-23T21:47:34.212Z,43.80
2022-10-23T21:52:36.636Z,49.57
2022-10-23T21:57:39.042Z,55.17
2022-10-23T22:02:41.642Z,63.47
2022-10-23T22:07:47.360Z,57.50
2022-10-23T22:12:49.737Z,51.80
2022-10-23T22:17:52.175Z,44.37
2022-10-23T22:22:54.567Z,43.20
2022-10-23T22:27:57.004Z,50.57
2022-10-23T22:32:59.413Z,50.47
2022-10-23T22:38:01.937Z,43.37
2022-10-23T22:43:04.434Z,43.40
2022-10-23T22:48:08.623Z,41.93
2022-10-23T22:53:11.045Z,42.83
2022-10-23T22:58:13.432Z,42.87
2022-10-23T23:03:16.122Z,40.07
2022-10-23T23:08:18.540Z,41.43
2022-10-23T23:13:21.208Z,37.87
2022-10-23T23:18:23.597Z,36.53
2022-10-23T23:23:25.957Z,39.50
2022-10-23T23:28:28.352Z,35.97
2022-10-23T23:33:30.888Z,34.63
2022-10-23T23:38:33.375Z,41.83
2022-10-23T23:43:35.740Z,38.97
2022-10-23T23:48:39.033Z,34.77
2022-10-23T23:53:41.465Z,36.30
2022-10-23T23:58:44.205Z,37.87
